sensor_id;sensor_type;location;lat;lon;timestamp;pressure;altitude;pressure_sealevel;temperature;humidity
55466;BME280;41329;41.594;23.810;2022-10-16T00:01:09;95837.59;;;10.44;57.23
55466;BME280;41329;41.594;23.810;2022-10-16T00:03:37;95839.13;;;10.42;57.63
55466;BME280;41329;41.594;23.810;2022-10-16T00:06:03;95835.47;;;10.38;57.62
55466;BME280;41329;41.594;23.810;2022-10-16T00:08:29;95831.44;;;10.35;57.43
55466;BME280;41329;41.594;23.810;2022-10-16T00:11:07;95827.34;;;10.29;57.75
55466;BME280;41329;41.594;23.810;2022-10-16T00:13:34;95826.38;;;10.22;57.72
55466;BME280;41329;41.594;23.810;2022-10-16T00:16:01;95830.72;;;10.23;58.16
55466;BME280;41329;41.594;23.810;2022-10-16T00:18:27;95826.88;;;10.12;58.64
55466;BME280;41329;41.594;23.810;2022-10-16T00:20:53;95843.38;;;10.24;59.64
55466;BME280;41329;41.594;23.810;2022-10-16T00:23:20;95828.88;;;10.11;58.85
55466;BME280;41329;41.594;23.810;2022-10-16T00:25:58;95839.94;;;10.11;58.82
55466;BME280;41329;41.594;23.810;2022-10-16T00:28:24;95838.41;;;10.14;58.94
55466;BME280;41329;41.594;23.810;2022-10-16T00:30:49;95816.34;;;10.02;58.78
55466;BME280;41329;41.594;23.810;2022-10-16T00:33:15;95818.47;;;9.93;58.97
55466;BME280;41329;41.594;23.810;2022-10-16T00:35:41;95832.09;;;9.86;58.59
55466;BME280;41329;41.594;23.810;2022-10-16T00:38:06;95833.19;;;9.81;58.33
55466;BME280;41329;41.594;23.810;2022-10-16T00:40:32;95830.75;;;9.64;58.62
55466;BME280;41329;41.594;23.810;2022-10-16T00:42:57;95830.91;;;9.56;59.02
55466;BME280;41329;41.594;23.810;2022-10-16T00:45:23;95841.41;;;9.50;59.32
55466;BME280;41329;41.594;23.810;2022-10-16T00:47:50;95838.97;;;9.21;59.89
55466;BME280;41329;41.594;23.810;2022-10-16T00:50:33;95836.47;;;9.16;60.43
55466;BME280;41329;41.594;23.810;2022-10-16T00:53:01;95787.59;;;8.89;60.39
55466;BME280;41329;41.594;23.810;2022-10-16T00:55:27;95830.50;;;9.14;61.08
55466;BME280;41329;41.594;23.810;2022-10-16T00:57:55;95833.38;;;9.18;60.99
55466;BME280;41329;41.594;23.810;2022-10-16T01:00:24;95825.78;;;9.15;60.67
55466;BME280;41329;41.594;23.810;2022-10-16T01:02:58;95814.78;;;9.03;60.54
55466;BME280;41329;41.594;23.810;2022-10-16T01:05:36;95834.06;;;9.15;60.66
55466;BME280;41329;41.594;23.810;2022-10-16T01:10:53;95815.94;;;9.02;61.19
55466;BME280;41329;41.594;23.810;2022-10-16T01:13:25;95844.66;;;9.13;61.55
55466;BME280;41329;41.594;23.810;2022-10-16T01:16:07;95837.06;;;9.10;61.96
55466;BME280;41329;41.594;23.810;2022-10-16T01:18:42;95843.84;;;9.12;61.79
55466;BME280;41329;41.594;23.810;2022-10-16T01:21:10;95846.59;;;9.12;61.85
55466;BME280;41329;41.594;23.810;2022-10-16T01:23:51;95850.28;;;9.16;62.19
55466;BME280;41329;41.594;23.810;2022-10-16T01:27:09;95864.28;;;9.23;61.81
55466;BME280;41329;41.594;23.810;2022-10-16T01:32:16;95853.25;;;9.23;61.76
55466;BME280;41329;41.594;23.810;2022-10-16T01:38:17;95864.38;;;9.27;61.58
55466;BME280;41329;41.594;23.810;2022-10-16T01:40:49;95863.22;;;9.28;61.24
55466;BME280;41329;41.594;23.810;2022-10-16T01:43:20;95814.00;;;9.02;61.25
55466;BME280;41329;41.594;23.810;2022-10-16T01:45:47;95854.94;;;9.28;60.99
55466;BME280;41329;41.594;23.810;2022-10-16T01:48:17;95860.94;;;9.30;61.10
55466;BME280;41329;41.594;23.810;2022-10-16T01:50:44;95855.31;;;9.26;61.83
55466;BME280;41329;41.594;23.810;2022-10-16T01:53:15;95853.69;;;9.25;61.87
55466;BME280;41329;41.594;23.810;2022-10-16T01:55:44;95860.03;;;9.26;61.42
55466;BME280;41329;41.594;23.810;2022-10-16T01:58:13;95861.97;;;9.25;60.99
55466;BME280;41329;41.594;23.810;2022-10-16T02:00:42;95861.78;;;9.18;60.82
55466;BME280;41329;41.594;23.810;2022-10-16T02:03:11;95844.78;;;9.04;60.66
55466;BME280;41329;41.594;23.810;2022-10-16T02:08:07;95879.84;;;9.16;61.52
55466;BME280;41329;41.594;23.810;2022-10-16T02:10:35;95869.84;;;9.11;61.44
55466;BME280;41329;41.594;23.810;2022-10-16T02:13:15;95883.75;;;9.15;61.23
55466;BME280;41329;41.594;23.810;2022-10-16T02:15:42;95877.66;;;9.09;61.78
55466;BME280;41329;41.594;23.810;2022-10-16T02:18:09;95874.03;;;9.05;61.75
55466;BME280;41329;41.594;23.810;2022-10-16T02:20:49;95867.38;;;8.94;61.69
55466;BME280;41329;41.594;23.810;2022-10-16T02:23:18;95873.50;;;8.52;62.52
55466;BME280;41329;41.594;23.810;2022-10-16T02:25:47;95852.59;;;8.27;62.71
55466;BME280;41329;41.594;23.810;2022-10-16T02:28:25;95881.34;;;8.50;63.02
55466;BME280;41329;41.594;23.810;2022-10-16T02:30:58;95880.41;;;8.46;63.22
55466;BME280;41329;41.594;23.810;2022-10-16T02:33:26;95865.34;;;8.31;62.97
55466;BME280;41329;41.594;23.810;2022-10-16T02:35:53;95874.41;;;8.44;62.95
55466;BME280;41329;41.594;23.810;2022-10-16T02:38:20;95882.00;;;8.47;62.91
55466;BME280;41329;41.594;23.810;2022-10-16T02:40:46;95878.09;;;8.48;63.12
55466;BME280;41329;41.594;23.810;2022-10-16T02:43:12;95891.88;;;8.48;63.43
55466;BME280;41329;41.594;23.810;2022-10-16T02:45:38;95893.63;;;8.52;63.19
55466;BME280;41329;41.594;23.810;2022-10-16T02:48:04;95902.22;;;8.39;63.19
55466;BME280;41329;41.594;23.810;2022-10-16T02:50:30;95908.56;;;8.39;62.50
55466;BME280;41329;41.594;23.810;2022-10-16T02:52:55;95889.00;;;8.32;62.91
55466;BME280;41329;41.594;23.810;2022-10-16T02:55:20;95899.47;;;8.39;62.78
55466;BME280;41329;41.594;23.810;2022-10-16T02:57:46;95910.75;;;8.46;63.36
55466;BME280;41329;41.594;23.810;2022-10-16T03:00:14;95912.09;;;8.40;63.54
55466;BME280;41329;41.594;23.810;2022-10-16T03:02:39;95897.97;;;8.29;63.04
55466;BME280;41329;41.594;23.810;2022-10-16T03:05:05;95912.00;;;8.36;62.74
55466;BME280;41329;41.594;23.810;2022-10-16T03:07:31;95904.19;;;8.26;63.05
55466;BME280;41329;41.594;23.810;2022-10-16T03:09:56;95906.22;;;8.17;62.98
55466;BME280;41329;41.594;23.810;2022-10-16T03:12:25;95902.53;;;8.13;63.13
55466;BME280;41329;41.594;23.810;2022-10-16T03:14:51;95903.31;;;8.14;63.34
55466;BME280;41329;41.594;23.810;2022-10-16T03:17:16;95930.13;;;8.25;63.40
55466;BME280;41329;41.594;23.810;2022-10-16T03:19:42;95939.09;;;8.22;63.05
55466;BME280;41329;41.594;23.810;2022-10-16T03:22:07;95913.97;;;8.03;62.72
55466;BME280;41329;41.594;23.810;2022-10-16T03:24:33;95919.97;;;8.05;62.69
55466;BME280;41329;41.594;23.810;2022-10-16T03:26:59;95935.59;;;8.13;62.65
55466;BME280;41329;41.594;23.810;2022-10-16T03:29:24;95924.06;;;7.99;63.38
55466;BME280;41329;41.594;23.810;2022-10-16T03:31:51;95944.88;;;8.09;63.56
55466;BME280;41329;41.594;23.810;2022-10-16T03:34:16;95923.97;;;7.96;63.78
55466;BME280;41329;41.594;23.810;2022-10-16T03:36:41;95906.38;;;7.88;63.85
55466;BME280;41329;41.594;23.810;2022-10-16T03:39:07;95935.34;;;8.06;63.70
55466;BME280;41329;41.594;23.810;2022-10-16T03:41:32;95942.34;;;8.04;63.49
55466;BME280;41329;41.594;23.810;2022-10-16T03:43:58;95939.94;;;8.02;63.18
55466;BME280;41329;41.594;23.810;2022-10-16T03:46:23;95944.19;;;8.00;63.50
55466;BME280;41329;41.594;23.810;2022-10-16T03:48:49;95939.00;;;7.98;63.68
55466;BME280;41329;41.594;23.810;2022-10-16T03:51:14;95941.75;;;7.98;63.68
55466;BME280;41329;41.594;23.810;2022-10-16T03:53:39;95934.31;;;7.99;63.83
55466;BME280;41329;41.594;23.810;2022-10-16T03:56:05;95938.19;;;7.98;63.97
55466;BME280;41329;41.594;23.810;2022-10-16T03:58:31;95905.19;;;7.77;64.03
55466;BME280;41329;41.594;23.810;2022-10-16T04:00:56;95903.59;;;7.76;64.33
55466;BME280;41329;41.594;23.810;2022-10-16T04:03:22;95940.00;;;7.94;64.11
55466;BME280;41329;41.594;23.810;2022-10-16T04:05:48;95937.25;;;7.94;63.87
55466;BME280;41329;41.594;23.810;2022-10-16T04:08:14;95941.31;;;7.96;64.06
55466;BME280;41329;41.594;23.810;2022-10-16T04:10:39;95937.75;;;7.96;64.12
55466;BME280;41329;41.594;23.810;2022-10-16T04:13:05;95933.38;;;7.95;63.96
55466;BME280;41329;41.594;23.810;2022-10-16T04:15:30;95938.06;;;7.94;64.52
55466;BME280;41329;41.594;23.810;2022-10-16T04:17:56;95923.59;;;7.85;64.35
55466;BME280;41329;41.594;23.810;2022-10-16T04:20:21;95936.25;;;7.66;64.01
55466;BME280;41329;41.594;23.810;2022-10-16T04:22:46;95946.28;;;7.50;63.48
55466;BME280;41329;41.594;23.810;2022-10-16T04:25:12;95948.91;;;7.46;63.00
55466;BME280;41329;41.594;23.810;2022-10-16T04:27:38;95948.97;;;7.38;63.34
55466;BME280;41329;41.594;23.810;2022-10-16T04:30:04;95939.66;;;7.30;63.66
55466;BME280;41329;41.594;23.810;2022-10-16T04:32:30;95890.53;;;6.79;63.65
55466;BME280;41329;41.594;23.810;2022-10-16T04:34:55;95941.53;;;6.97;64.23
55466;BME280;41329;41.594;23.810;2022-10-16T04:37:24;95927.69;;;6.85;64.35
55466;BME280;41329;41.594;23.810;2022-10-16T04:39:50;95932.03;;;6.86;64.63
55466;BME280;41329;41.594;23.810;2022-10-16T04:42:16;95949.16;;;6.92;64.34
55466;BME280;41329;41.594;23.810;2022-10-16T04:44:41;95958.56;;;6.91;64.67
55466;BME280;41329;41.594;23.810;2022-10-16T04:47:07;95951.97;;;6.83;64.54
55466;BME280;41329;41.594;23.810;2022-10-16T04:49:33;95949.56;;;6.82;64.85
55466;BME280;41329;41.594;23.810;2022-10-16T04:51:58;95962.91;;;6.92;65.10
55466;BME280;41329;41.594;23.810;2022-10-16T04:54:23;95963.41;;;6.94;65.43
55466;BME280;41329;41.594;23.810;2022-10-16T04:56:49;95939.69;;;6.81;65.58
55466;BME280;41329;41.594;23.810;2022-10-16T04:59:17;95960.06;;;6.80;66.51
55466;BME280;41329;41.594;23.810;2022-10-16T05:01:43;95973.97;;;6.83;66.22
55466;BME280;41329;41.594;23.810;2022-10-16T05:04:09;95976.38;;;6.85;66.00
55466;BME280;41329;41.594;23.810;2022-10-16T05:06:35;95961.50;;;6.86;66.39
55466;BME280;41329;41.594;23.810;2022-10-16T05:09:00;95973.59;;;6.93;66.60
55466;BME280;41329;41.594;23.810;2022-10-16T05:11:29;95975.53;;;6.93;66.89
55466;BME280;41329;41.594;23.810;2022-10-16T05:13:55;95975.16;;;7.03;67.09
55466;BME280;41329;41.594;23.810;2022-10-16T05:16:20;95954.78;;;6.95;67.19
55466;BME280;41329;41.594;23.810;2022-10-16T05:18:46;95970.25;;;7.08;67.41
55466;BME280;41329;41.594;23.810;2022-10-16T05:21:11;95974.53;;;7.18;67.57
55466;BME280;41329;41.594;23.810;2022-10-16T05:23:36;95973.69;;;7.26;67.54
55466;BME280;41329;41.594;23.810;2022-10-16T05:26:02;95977.38;;;7.30;67.70
55466;BME280;41329;41.594;23.810;2022-10-16T05:28:29;95976.19;;;7.39;68.00
55466;BME280;41329;41.594;23.810;2022-10-16T05:30:55;95982.75;;;7.47;68.19
55466;BME280;41329;41.594;23.810;2022-10-16T05:33:21;95993.50;;;7.60;68.26
55466;BME280;41329;41.594;23.810;2022-10-16T05:35:47;95973.28;;;7.56;68.24
55466;BME280;41329;41.594;23.810;2022-10-16T05:38:18;95990.59;;;7.77;68.20
55466;BME280;41329;41.594;23.810;2022-10-16T05:40:50;96001.19;;;7.87;68.35
55466;BME280;41329;41.594;23.810;2022-10-16T05:43:16;96004.53;;;7.93;68.71
55466;BME280;41329;41.594;23.810;2022-10-16T05:45:42;96014.94;;;8.08;68.71
55466;BME280;41329;41.594;23.810;2022-10-16T05:48:07;96012.41;;;8.15;68.68
55466;BME280;41329;41.594;23.810;2022-10-16T05:50:33;96009.16;;;8.21;68.79
55466;BME280;41329;41.594;23.810;2022-10-16T05:52:58;96022.97;;;8.33;68.99
55466;BME280;41329;41.594;23.810;2022-10-16T05:55:24;96024.81;;;8.41;69.02
55466;BME280;41329;41.594;23.810;2022-10-16T05:57:49;96012.19;;;8.40;68.89
55466;BME280;41329;41.594;23.810;2022-10-16T06:00:15;96010.34;;;8.44;68.78
55466;BME280;41329;41.594;23.810;2022-10-16T06:02:40;96012.66;;;8.54;68.83
55466;BME280;41329;41.594;23.810;2022-10-16T06:05:06;96032.81;;;8.67;68.74
55466;BME280;41329;41.594;23.810;2022-10-16T06:07:34;96027.19;;;8.75;69.00
55466;BME280;41329;41.594;23.810;2022-10-16T06:10:01;96039.81;;;8.88;69.07
55466;BME280;41329;41.594;23.810;2022-10-16T06:12:27;96029.72;;;8.92;68.98
55466;BME280;41329;41.594;23.810;2022-10-16T06:14:52;96031.56;;;8.88;69.24
55466;BME280;41329;41.594;23.810;2022-10-16T06:17:18;96035.97;;;9.01;68.74
55466;BME280;41329;41.594;23.810;2022-10-16T06:19:43;96030.41;;;9.13;68.82
55466;BME280;41329;41.594;23.810;2022-10-16T06:22:09;96022.38;;;9.08;68.77
55466;BME280;41329;41.594;23.810;2022-10-16T06:24:34;96042.28;;;9.26;68.83
55466;BME280;41329;41.594;23.810;2022-10-16T06:27:00;96042.50;;;9.33;68.57
55466;BME280;41329;41.594;23.810;2022-10-16T06:29:25;96040.28;;;9.38;68.54
55466;BME280;41329;41.594;23.810;2022-10-16T06:31:50;96034.91;;;9.42;68.60
55466;BME280;41329;41.594;23.810;2022-10-16T06:34:16;96042.00;;;9.55;69.29
55466;BME280;41329;41.594;23.810;2022-10-16T06:36:41;96049.38;;;9.39;69.97
55466;BME280;41329;41.594;23.810;2022-10-16T06:39:08;96046.84;;;9.46;70.34
55466;BME280;41329;41.594;23.810;2022-10-16T06:41:34;96054.13;;;9.26;70.39
55466;BME280;41329;41.594;23.810;2022-10-16T06:44:00;96055.84;;;9.31;70.24
55466;BME280;41329;41.594;23.810;2022-10-16T06:46:26;96051.72;;;9.37;70.81
55466;BME280;41329;41.594;23.810;2022-10-16T06:48:53;96052.94;;;9.51;70.37
55466;BME280;41329;41.594;23.810;2022-10-16T06:51:20;96040.59;;;9.61;70.12
55466;BME280;41329;41.594;23.810;2022-10-16T06:53:53;96046.44;;;9.71;69.47
55466;BME280;41329;41.594;23.810;2022-10-16T06:56:24;96031.47;;;9.72;69.82
55466;BME280;41329;41.594;23.810;2022-10-16T06:58:49;96050.97;;;10.03;69.64
55466;BME280;41329;41.594;23.810;2022-10-16T07:01:17;96052.38;;;9.97;69.03
55466;BME280;41329;41.594;23.810;2022-10-16T07:03:44;96049.50;;;9.94;69.06
55466;BME280;41329;41.594;23.810;2022-10-16T07:06:12;96059.34;;;10.19;69.58
55466;BME280;41329;41.594;23.810;2022-10-16T07:08:39;96050.66;;;10.32;69.45
55466;BME280;41329;41.594;23.810;2022-10-16T07:11:08;96055.28;;;10.56;69.66
55466;BME280;41329;41.594;23.810;2022-10-16T07:13:35;96055.56;;;10.82;68.87
55466;BME280;41329;41.594;23.810;2022-10-16T07:16:12;96046.66;;;10.88;67.94
55466;BME280;41329;41.594;23.810;2022-10-16T07:18:38;95999.66;;;10.76;66.93
55466;BME280;41329;41.594;23.810;2022-10-16T07:21:13;96057.75;;;11.19;66.16
55466;BME280;41329;41.594;23.810;2022-10-16T07:23:38;96037.34;;;11.27;65.87
55466;BME280;41329;41.594;23.810;2022-10-16T07:26:05;96049.22;;;11.43;65.69
55466;BME280;41329;41.594;23.810;2022-10-16T07:28:31;96052.97;;;11.51;63.97
55466;BME280;41329;41.594;23.810;2022-10-16T07:31:05;96056.72;;;11.74;64.35
55466;BME280;41329;41.594;23.810;2022-10-16T07:33:32;96053.50;;;11.72;64.23
55466;BME280;41329;41.594;23.810;2022-10-16T07:35:58;96061.25;;;11.82;62.51
55466;BME280;41329;41.594;23.810;2022-10-16T07:38:23;96059.06;;;11.91;62.69
55466;BME280;41329;41.594;23.810;2022-10-16T07:40:56;96059.78;;;11.88;63.05
55466;BME280;41329;41.594;23.810;2022-10-16T07:43:21;96061.88;;;12.10;63.70
55466;BME280;41329;41.594;23.810;2022-10-16T07:45:48;96060.03;;;12.36;63.98
55466;BME280;41329;41.594;23.810;2022-10-16T07:48:14;96057.41;;;12.43;61.04
55466;BME280;41329;41.594;23.810;2022-10-16T07:50:40;96044.47;;;12.51;62.92
55466;BME280;41329;41.594;23.810;2022-10-16T07:53:06;96045.25;;;12.71;61.45
55466;BME280;41329;41.594;23.810;2022-10-16T07:55:32;96036.84;;;12.86;61.02
55466;BME280;41329;41.594;23.810;2022-10-16T07:57:57;96048.06;;;13.12;61.07
55466;BME280;41329;41.594;23.810;2022-10-16T08:00:23;96037.97;;;13.27;60.55
55466;BME280;41329;41.594;23.810;2022-10-16T08:02:48;96024.31;;;13.41;59.95
55466;BME280;41329;41.594;23.810;2022-10-16T08:05:13;96032.94;;;13.58;58.80
55466;BME280;41329;41.594;23.810;2022-10-16T08:07:39;96030.03;;;13.77;58.45
55466;BME280;41329;41.594;23.810;2022-10-16T08:10:05;96028.34;;;13.99;57.95
55466;BME280;41329;41.594;23.810;2022-10-16T08:12:30;96023.41;;;14.15;57.60
55466;BME280;41329;41.594;23.810;2022-10-16T08:14:56;96036.97;;;14.16;56.77
55466;BME280;41329;41.594;23.810;2022-10-16T08:17:21;96031.31;;;14.13;56.05
55466;BME280;41329;41.594;23.810;2022-10-16T08:19:47;96023.81;;;14.17;56.54
55466;BME280;41329;41.594;23.810;2022-10-16T08:22:14;96031.72;;;14.41;54.78
55466;BME280;41329;41.594;23.810;2022-10-16T08:24:40;96022.38;;;14.56;55.44
55466;BME280;41329;41.594;23.810;2022-10-16T08:27:06;96015.25;;;14.58;54.25
55466;BME280;41329;41.594;23.810;2022-10-16T08:29:32;96024.44;;;14.62;54.41
55466;BME280;41329;41.594;23.810;2022-10-16T08:31:58;96009.47;;;14.77;55.18
55466;BME280;41329;41.594;23.810;2022-10-16T08:34:23;96026.03;;;15.03;53.61
55466;BME280;41329;41.594;23.810;2022-10-16T08:36:49;96025.00;;;15.18;53.02
55466;BME280;41329;41.594;23.810;2022-10-16T08:39:15;96013.03;;;15.14;53.05
55466;BME280;41329;41.594;23.810;2022-10-16T08:47:43;96011.50;;;15.67;49.89
55466;BME280;41329;41.594;23.810;2022-10-16T08:49:47;96008.56;;;15.46;49.21
55466;BME280;41329;41.594;23.810;2022-10-16T08:52:18;96023.13;;;15.80;50.48
55466;BME280;41329;41.594;23.810;2022-10-16T08:54:47;96021.63;;;15.93;50.08
55466;BME280;41329;41.594;23.810;2022-10-16T08:57:22;96016.59;;;16.16;48.37
55466;BME280;41329;41.594;23.810;2022-10-16T08:59:49;96005.03;;;16.17;48.58
55466;BME280;41329;41.594;23.810;2022-10-16T09:02:24;96013.56;;;16.42;49.52
55466;BME280;41329;41.594;23.810;2022-10-16T09:07:46;96016.81;;;16.65;46.00
55466;BME280;41329;41.594;23.810;2022-10-16T09:10:36;95995.19;;;16.44;45.74
55466;BME280;41329;41.594;23.810;2022-10-16T09:19:09;95992.53;;;16.83;46.75
55466;BME280;41329;41.594;23.810;2022-10-16T09:21:47;95987.78;;;17.01;45.28
55466;BME280;41329;41.594;23.810;2022-10-16T09:24:13;95989.41;;;17.19;45.89
55466;BME280;41329;41.594;23.810;2022-10-16T09:26:39;95983.41;;;17.31;44.24
55466;BME280;41329;41.594;23.810;2022-10-16T09:29:05;95980.25;;;17.54;44.48
55466;BME280;41329;41.594;23.810;2022-10-16T09:31:30;95977.03;;;17.73;43.74
55466;BME280;41329;41.594;23.810;2022-10-16T09:34:00;95975.00;;;17.95;43.20
55466;BME280;41329;41.594;23.810;2022-10-16T09:36:39;95966.94;;;18.14;42.62
55466;BME280;41329;41.594;23.810;2022-10-16T09:39:08;95975.28;;;18.32;43.46
55466;BME280;41329;41.594;23.810;2022-10-16T09:41:44;95955.66;;;18.42;42.02
55466;BME280;41329;41.594;23.810;2022-10-16T09:44:30;95951.66;;;18.36;40.42
55466;BME280;41329;41.594;23.810;2022-10-16T09:47:14;95953.66;;;18.46;39.32
55466;BME280;41329;41.594;23.810;2022-10-16T09:49:55;95965.16;;;18.62;40.70
55466;BME280;41329;41.594;23.810;2022-10-16T09:52:22;95960.66;;;18.82;38.95
55466;BME280;41329;41.594;23.810;2022-10-16T09:54:55;95941.81;;;18.79;40.09
55466;BME280;41329;41.594;23.810;2022-10-16T09:57:21;95954.81;;;19.14;41.32
55466;BME280;41329;41.594;23.810;2022-10-16T09:59:55;95955.16;;;19.30;39.30
55466;BME280;41329;41.594;23.810;2022-10-16T10:02:31;95953.16;;;19.30;38.53
55466;BME280;41329;41.594;23.810;2022-10-16T10:04:59;95955.47;;;19.39;38.79
55466;BME280;41329;41.594;23.810;2022-10-16T10:07:31;95935.81;;;19.39;40.48
55466;BME280;41329;41.594;23.810;2022-10-16T10:10:02;95928.34;;;19.66;40.59
55466;BME280;41329;41.594;23.810;2022-10-16T10:12:30;95937.59;;;20.03;38.99
55466;BME280;41329;41.594;23.810;2022-10-16T10:15:07;95936.13;;;19.92;38.03
55466;BME280;41329;41.594;23.810;2022-10-16T10:17:48;95916.59;;;19.78;37.33
55466;BME280;41329;41.594;23.810;2022-10-16T10:20:31;95912.97;;;19.81;38.32
55466;BME280;41329;41.594;23.810;2022-10-16T10:23:01;95926.53;;;19.86;37.70
55466;BME280;41329;41.594;23.810;2022-10-16T10:25:50;95926.53;;;19.86;37.99
55466;BME280;41329;41.594;23.810;2022-10-16T10:28:42;95927.75;;;20.25;38.71
55466;BME280;41329;41.594;23.810;2022-10-16T10:36:39;95908.78;;;20.63;34.96
55466;BME280;41329;41.594;23.810;2022-10-16T10:39:53;95909.28;;;20.84;34.88
55466;BME280;41329;41.594;23.810;2022-10-16T10:42:36;95857.44;;;20.59;36.25
55466;BME280;41329;41.594;23.810;2022-10-16T10:45:27;95895.91;;;21.18;36.07
55466;BME280;41329;41.594;23.810;2022-10-16T10:50:41;95894.31;;;21.17;33.97
55466;BME280;41329;41.594;23.810;2022-10-16T10:56:07;95895.06;;;21.21;35.21
55466;BME280;41329;41.594;23.810;2022-10-16T10:59:02;95883.53;;;21.39;36.03
55466;BME280;41329;41.594;23.810;2022-10-16T11:07:01;95875.59;;;21.99;34.50
55466;BME280;41329;41.594;23.810;2022-10-16T11:12:12;95879.66;;;22.18;32.91
55466;BME280;41329;41.594;23.810;2022-10-16T11:17:22;95873.00;;;22.28;31.55
55466;BME280;41329;41.594;23.810;2022-10-16T11:20:23;95875.69;;;22.35;31.44
55466;BME280;41329;41.594;23.810;2022-10-16T11:22:56;95855.38;;;22.04;31.84
55466;BME280;41329;41.594;23.810;2022-10-16T11:25:28;95852.34;;;22.15;31.10
55466;BME280;41329;41.594;23.810;2022-10-16T11:30:51;95858.75;;;22.35;31.50
55466;BME280;41329;41.594;23.810;2022-10-16T11:33:32;95858.75;;;22.35;29.80
55466;BME280;41329;41.594;23.810;2022-10-16T11:38:33;95853.84;;;22.58;30.25
55466;BME280;41329;41.594;23.810;2022-10-16T11:41:13;95841.16;;;22.66;29.99
55466;BME280;41329;41.594;23.810;2022-10-16T11:43:43;95842.97;;;22.92;29.52
55466;BME280;41329;41.594;23.810;2022-10-16T11:46:16;95831.84;;;22.85;29.03
55466;BME280;41329;41.594;23.810;2022-10-16T11:48:49;95849.63;;;22.66;29.65
55466;BME280;41329;41.594;23.810;2022-10-16T11:51:37;95842.94;;;22.76;28.86
55466;BME280;41329;41.594;23.810;2022-10-16T11:54:33;95842.41;;;22.81;29.45
55466;BME280;41329;41.594;23.810;2022-10-16T11:57:11;95853.56;;;23.05;27.95
55466;BME280;41329;41.594;23.810;2022-10-16T12:03:03;95846.09;;;23.30;28.80
55466;BME280;41329;41.594;23.810;2022-10-16T12:08:17;95835.66;;;23.59;28.75
55466;BME280;41329;41.594;23.810;2022-10-16T12:10:45;95829.78;;;23.22;27.36
55466;BME280;41329;41.594;23.810;2022-10-16T12:13:37;95835.44;;;23.38;27.84
55466;BME280;41329;41.594;23.810;2022-10-16T12:18:38;95825.19;;;23.44;27.35
55466;BME280;41329;41.594;23.810;2022-10-16T12:21:04;95834.59;;;23.69;28.58
55466;BME280;41329;41.594;23.810;2022-10-16T12:23:33;95808.47;;;23.65;28.38
55466;BME280;41329;41.594;23.810;2022-10-16T12:26:01;95839.13;;;24.11;27.62
55466;BME280;41329;41.594;23.810;2022-10-16T12:28:29;95835.97;;;24.22;27.04
55466;BME280;41329;41.594;23.810;2022-10-16T12:33:24;95822.16;;;24.24;26.85
55466;BME280;41329;41.594;23.810;2022-10-16T12:35:50;95829.69;;;24.43;27.01
55466;BME280;41329;41.594;23.810;2022-10-16T12:38:51;95834.78;;;24.48;26.61
55466;BME280;41329;41.594;23.810;2022-10-16T12:41:34;95837.66;;;24.60;25.42
55466;BME280;41329;41.594;23.810;2022-10-16T12:44:01;95823.16;;;24.58;25.88
55466;BME280;41329;41.594;23.810;2022-10-16T12:51:53;95831.91;;;24.64;26.50
55466;BME280;41329;41.594;23.810;2022-10-16T12:54:25;95832.16;;;24.82;25.95
55466;BME280;41329;41.594;23.810;2022-10-16T13:05:12;95836.22;;;25.18;25.30
55466;BME280;41329;41.594;23.810;2022-10-16T13:13:00;95846.88;;;25.39;25.18
55466;BME280;41329;41.594;23.810;2022-10-16T13:18:54;95830.56;;;25.18;24.80
55466;BME280;41329;41.594;23.810;2022-10-16T13:26:56;95848.31;;;25.56;24.85
55466;BME280;41329;41.594;23.810;2022-10-16T13:29:22;95846.53;;;25.62;25.00
55466;BME280;41329;41.594;23.810;2022-10-16T13:31:48;95839.81;;;25.56;24.30
55466;BME280;41329;41.594;23.810;2022-10-16T13:34:20;95852.38;;;25.68;24.99
55466;BME280;41329;41.594;23.810;2022-10-16T13:36:50;95845.56;;;25.78;24.56
55466;BME280;41329;41.594;23.810;2022-10-16T13:39:27;95856.06;;;25.90;23.67
55466;BME280;41329;41.594;23.810;2022-10-16T13:44:39;95852.34;;;25.80;24.85
55466;BME280;41329;41.594;23.810;2022-10-16T13:47:18;95860.25;;;25.98;23.55
55466;BME280;41329;41.594;23.810;2022-10-16T13:49:44;95855.72;;;26.00;23.86
55466;BME280;41329;41.594;23.810;2022-10-16T13:52:20;95858.44;;;25.91;23.19
55466;BME280;41329;41.594;23.810;2022-10-16T13:54:46;95825.13;;;25.83;23.90
55466;BME280;41329;41.594;23.810;2022-10-16T13:57:14;95853.28;;;26.11;24.07
55466;BME280;41329;41.594;23.810;2022-10-16T13:59:40;95862.41;;;26.28;24.16
55466;BME280;41329;41.594;23.810;2022-10-16T14:02:33;95861.38;;;26.34;23.37
55466;BME280;41329;41.594;23.810;2022-10-16T14:05:01;95849.72;;;26.41;23.30
55466;BME280;41329;41.594;23.810;2022-10-16T14:07:29;95863.81;;;26.66;23.59
55466;BME280;41329;41.594;23.810;2022-10-16T14:10:02;95865.72;;;26.91;23.46
55466;BME280;41329;41.594;23.810;2022-10-16T14:12:28;95868.44;;;27.03;24.07
55466;BME280;41329;41.594;23.810;2022-10-16T14:14:55;95865.28;;;27.32;22.99
55466;BME280;41329;41.594;23.810;2022-10-16T14:17:25;95871.22;;;27.55;21.60
55466;BME280;41329;41.594;23.810;2022-10-16T14:19:54;95871.16;;;27.37;21.80
55466;BME280;41329;41.594;23.810;2022-10-16T14:22:35;95870.91;;;27.53;22.90
55466;BME280;41329;41.594;23.810;2022-10-16T14:25:25;95876.22;;;27.91;21.74
55466;BME280;41329;41.594;23.810;2022-10-16T14:28:05;95867.84;;;27.88;21.06
55466;BME280;41329;41.594;23.810;2022-10-16T14:33:31;95866.66;;;28.52;20.76
55466;BME280;41329;41.594;23.810;2022-10-16T14:36:18;95879.09;;;28.90;21.02
55466;BME280;41329;41.594;23.810;2022-10-16T14:41:21;95875.44;;;29.49;19.76
55466;BME280;41329;41.594;23.810;2022-10-16T14:43:51;95884.69;;;29.77;20.31
55466;BME280;41329;41.594;23.810;2022-10-16T14:46:20;95891.34;;;29.74;19.37
55466;BME280;41329;41.594;23.810;2022-10-16T14:48:49;95878.09;;;29.94;19.61